createdAt,value
2017-11-10T00:00:52.591Z,68.40
2017-11-10T00:03:18.990Z,68.30
2017-11-10T00:05:46.231Z,68.20
2017-11-10T00:08:12.561Z,68.20
2017-11-10T00:10:38.955Z,68.30
2017-11-10T00:13:05.301Z,68.10
2017-11-10T00:15:34.991Z,68.40
2017-11-10T00:18:01.328Z,67.90
2017-11-10T00:20:27.792Z,68.40
2017-11-10T00:22:54.136Z,68.40
2017-11-10T00:25:20.471Z,68.20
2017-11-10T00:27:46.821Z,68.40
2017-11-10T00:30:13.894Z,68.30
2017-11-10T00:32:42.229Z,68.30
2017-11-10T00:35:08.609Z,68.20
2017-11-10T00:37:35.377Z,67.80
2017-11-10T00:40:01.686Z,68.10
2017-11-10T00:42:30.014Z,67.40
2017-11-10T00:44:56.325Z,67.50
2017-11-10T00:47:22.647Z,67.70
2017-11-10T00:49:48.966Z,67.90
2017-11-10T00:52:15.290Z,67.80
2017-11-10T00:54:41.634Z,67.70
2017-11-10T00:57:07.959Z,67.50
2017-11-10T00:59:34.293Z,67.70
2017-11-10T01:02:01.435Z,67.40
2017-11-10T01:04:27.907Z,67.50
2017-11-10T01:06:54.969Z,68.40
2017-11-10T01:09:21.309Z,68.30
2017-11-10T01:11:47.633Z,68.90
2017-11-10T01:14:13.983Z,69.00
2017-11-10T01:16:40.317Z,69.00
2017-11-10T01:19:06.648Z,69.40
2017-11-10T01:21:32.992Z,69.50
2017-11-10T01:23:59.330Z,70.30
2017-11-10T01:26:27.249Z,69.90
2017-11-10T01:28:56.915Z,70.20
2017-11-10T01:31:23.254Z,69.50
2017-11-10T01:33:49.561Z,69.10
2017-11-10T01:36:16.645Z,68.90
2017-11-10T01:38:43.695Z,69.00
2017-11-10T01:41:10.769Z,68.30
2017-11-10T01:43:40.038Z,68.30
2017-11-10T01:46:06.142Z,68.00
2017-11-10T01:48:38.258Z,68.50
2017-11-10T01:51:04.578Z,68.40
2017-11-10T01:53:30.898Z,68.30
2017-11-10T01:55:57.961Z,67.90
2017-11-10T01:58:25.041Z,68.30
2017-11-10T02:00:52.143Z,68.00
2017-11-10T02:03:18.265Z,67.90
2017-11-10T02:05:44.632Z,67.80
2017-11-10T02:08:10.999Z,68.20
2017-11-10T02:10:37.405Z,68.10
2017-11-10T02:13:04.466Z,68.60
2017-11-10T02:15:30.831Z,68.60
2017-11-10T02:17:57.197Z,68.30
2017-11-10T02:20:23.529Z,68.00
2017-11-10T02:22:49.894Z,68.80
2017-11-10T02:25:16.242Z,69.20
2017-11-10T02:27:45.222Z,69.20
2017-11-10T02:30:11.607Z,68.80
2017-11-10T02:32:38.023Z,69.10
2017-11-10T02:35:05.114Z,69.20
2017-11-10T02:37:31.470Z,69.10
2017-11-10T02:39:57.846Z,69.10
2017-11-10T02:42:24.234Z,69.60
2017-11-10T02:44:53.393Z,69.20
2017-11-10T02:47:19.735Z,68.80
2017-11-10T02:49:48.606Z,69.00
2017-11-10T02:52:14.966Z,69.20
2017-11-10T02:54:45.119Z,69.20
2017-11-10T02:57:11.462Z,69.60
2017-11-10T02:59:38.541Z,69.40
2017-11-10T03:02:04.921Z,69.40
2017-11-10T03:04:31.263Z,69.10
2017-11-10T03:06:57.574Z,69.10
2017-11-10T03:09:23.910Z,69.30
2017-11-10T03:11:51.012Z,69.30
2017-11-10T03:14:17.265Z,69.30
2017-11-10T03:16:43.630Z,69.40
2017-11-10T03:19:10.024Z,69.00
2017-11-10T03:21:37.122Z,69.80
2017-11-10T03:24:03.834Z,69.70
2017-11-10T03:26:30.282Z,70.50
2017-11-10T03:28:56.630Z,70.50
2017-11-10T03:31:23.047Z,70.30
2017-11-10T03:33:51.529Z,69.80
2017-11-10T03:36:17.807Z,69.80
2017-11-10T03:38:44.141Z,70.30
2017-11-10T03:41:10.469Z,70.60
2017-11-10T03:43:40.222Z,69.90
2017-11-10T03:46:06.586Z,69.90
2017-11-10T03:48:35.783Z,69.80
2017-11-10T03:51:02.162Z,69.50
2017-11-10T03:53:28.519Z,70.10
2017-11-10T03:55:54.873Z,70.60
2017-11-10T03:58:21.222Z,70.50
2017-11-10T04:00:47.560Z,69.50
2017-11-10T04:03:13.902Z,69.60
2017-11-10T04:05:41.146Z,69.20
2017-11-10T04:08:08.242Z,69.20
2017-11-10T04:10:38.011Z,69.20
2017-11-10T04:13:04.362Z,68.90
2017-11-10T04:15:30.728Z,69.40
2017-11-10T04:17:57.066Z,70.00
2017-11-10T04:20:23.402Z,69.60
2017-11-10T04:22:49.891Z,69.80
2017-11-10T04:25:16.257Z,69.60
2017-11-10T04:27:42.669Z,69.30
2017-11-10T04:30:09.029Z,69.40
2017-11-10T04:32:35.399Z,70.00
2017-11-10T04:35:01.754Z,70.50
2017-11-10T04:37:29.591Z,70.80
2017-11-10T04:39:56.707Z,69.60
2017-11-10T04:42:23.025Z,69.60
2017-11-10T04:44:50.091Z,70.50
2017-11-10T04:47:17.151Z,71.10
2017-11-10T04:49:44.226Z,70.60
2017-11-10T04:52:10.596Z,70.70
2017-11-10T04:54:37.030Z,70.10
2017-11-10T04:57:03.374Z,69.50
2017-11-10T04:59:30.441Z,69.50
2017-11-10T05:01:57.550Z,69.90
2017-11-10T05:04:24.574Z,69.60
2017-11-10T05:06:50.920Z,69.70
2017-11-10T05:09:17.518Z,70.00
2017-11-10T05:11:45.634Z,70.10
2017-11-10T05:14:11.955Z,69.70
2017-11-10T05:16:41.014Z,70.20
2017-11-10T05:19:07.452Z,69.90
2017-11-10T05:21:33.933Z,69.70
2017-11-10T05:24:04.514Z,70.00
2017-11-10T05:26:34.029Z,69.90
2017-11-10T05:29:01.105Z,70.60
2017-11-10T05:31:27.980Z,70.40
2017-11-10T05:33:54.140Z,70.30
2017-11-10T05:36:21.221Z,71.40
2017-11-10T05:38:47.364Z,71.40
2017-11-10T05:41:14.235Z,70.20
2017-11-10T05:43:40.570Z,69.80
2017-11-10T05:46:07.275Z,70.70
2017-11-10T05:48:33.700Z,70.70
2017-11-10T05:51:00.052Z,71.00
2017-11-10T05:53:26.397Z,70.70
2017-11-10T05:55:52.729Z,70.90
2017-11-10T05:58:19.102Z,70.40
2017-11-10T06:00:45.460Z,70.00
2017-11-10T06:03:11.837Z,70.30
2017-11-10T06:05:38.157Z,69.80
2017-11-10T06:08:04.490Z,70.20
2017-11-10T06:10:30.836Z,70.10
2017-11-10T06:12:57.207Z,69.70
2017-11-10T06:15:23.614Z,69.40
2017-11-10T06:17:53.437Z,69.70
2017-11-10T06:20:20.321Z,70.10
2017-11-10T06:22:46.502Z,70.00
2017-11-10T06:25:12.657Z,69.80
2017-11-10T06:27:38.817Z,70.00
2017-11-10T06:30:05.022Z,69.70
2017-11-10T06:32:31.162Z,69.50
2017-11-10T06:34:57.507Z,69.60
2017-11-10T06:37:23.847Z,69.50
2017-11-10T06:39:50.328Z,69.30
2017-11-10T06:42:16.686Z,69.30
2017-11-10T06:44:43.773Z,70.00
2017-11-10T06:47:10.143Z,68.90
2017-11-10T06:49:36.540Z,68.60
2017-11-10T06:52:03.058Z,69.30
2017-11-10T06:54:29.414Z,69.70
2017-11-10T06:56:55.823Z,69.20
2017-11-10T06:59:22.228Z,69.70
2017-11-10T07:01:48.613Z,69.60
2017-11-10T07:04:15.578Z,69.50
2017-11-10T07:06:41.948Z,69.20
2017-11-10T07:09:08.291Z,69.20
2017-11-10T07:11:34.641Z,69.10
2017-11-10T07:14:00.946Z,69.00
2017-11-10T07:16:28.035Z,69.70
2017-11-10T07:18:54.395Z,69.90
2017-11-10T07:21:20.747Z,69.80
2017-11-10T07:23:47.083Z,69.90
2017-11-10T07:26:15.678Z,69.50
2017-11-10T07:28:42.179Z,69.90
2017-11-10T07:31:08.522Z,69.90
2017-11-10T07:33:38.098Z,70.00
2017-11-10T07:36:04.447Z,70.00
2017-11-10T07:38:31.543Z,70.00
2017-11-10T07:41:00.822Z,70.00
2017-11-10T07:43:27.270Z,69.70
2017-11-10T07:45:54.130Z,69.70
2017-11-10T07:48:21.003Z,70.00
2017-11-10T07:50:47.200Z,70.00
2017-11-10T07:53:13.309Z,69.40
2017-11-10T07:55:39.440Z,69.00
2017-11-10T07:58:05.601Z,69.40
2017-11-10T08:00:31.747Z,69.30
2017-11-10T08:02:57.896Z,69.50
2017-11-10T08:05:24.042Z,70.40
2017-11-10T08:07:50.393Z,69.90
2017-11-10T08:10:16.706Z,70.10
2017-11-10T08:12:43.773Z,70.40
2017-11-10T08:15:10.660Z,70.40
2017-11-10T08:17:36.785Z,70.50
2017-11-10T08:20:05.109Z,69.80
2017-11-10T08:22:31.470Z,70.50
2017-11-10T08:24:57.817Z,70.20
2017-11-10T08:27:24.133Z,70.50
2017-11-10T08:29:51.305Z,70.50
2017-11-10T08:32:17.694Z,70.00
2017-11-10T08:34:44.677Z,69.80
2017-11-10T08:37:11.095Z,69.80
2017-11-10T08:39:39.966Z,69.70
2017-11-10T08:42:06.316Z,69.30
2017-11-10T08:44:35.611Z,70.10
2017-11-10T08:47:01.941Z,70.00
2017-11-10T08:49:28.284Z,69.70
2017-11-10T08:51:54.663Z,69.50
2017-11-10T08:54:21.003Z,70.00
2017-11-10T08:56:47.309Z,70.20
2017-11-10T08:59:13.638Z,70.10
2017-11-10T09:01:40.697Z,70.50
2017-11-10T09:04:10.181Z,70.70
2017-11-10T09:06:36.493Z,70.60
2017-11-10T09:09:02.920Z,70.50
2017-11-10T09:11:29.241Z,70.50
2017-11-10T09:13:56.328Z,70.80
2017-11-10T09:16:22.453Z,70.80
2017-11-10T09:18:54.299Z,70.80
2017-11-10T09:21:20.674Z,70.80
2017-11-10T09:23:47.020Z,70.40
2017-11-10T09:26:14.119Z,70.90
2017-11-10T09:28:46.240Z,70.90
2017-11-10T09:31:21.695Z,70.60
2017-11-10T09:33:54.964Z,70.30
2017-11-10T09:36:27.385Z,70.30
2017-11-10T09:38:54.512Z,70.80
2017-11-10T09:41:28.474Z,71.30
2017-11-10T09:47:17.211Z,70.60
2017-11-10T09:49:49.685Z,70.40
2017-11-10T09:52:16.128Z,69.50
2017-11-10T09:54:48.831Z,70.30
2017-11-10T10:10:54.682Z,69.50
2017-11-10T10:13:22.959Z,69.60
2017-11-10T10:15:54.175Z,70.10
2017-11-10T10:31:58.895Z,68.40
2017-11-10T10:34:25.067Z,68.70
2017-11-10T10:36:52.386Z,68.00
2017-11-10T10:39:23.023Z,67.90
2017-11-10T10:41:50.179Z,68.00
2017-11-10T10:44:16.534Z,67.90
2017-11-10T10:46:43.646Z,67.10
2017-11-10T10:49:10.697Z,66.70
2017-11-10T10:51:37.024Z,66.50
2017-11-10T10:54:07.355Z,66.70
2017-11-10T10:56:33.694Z,67.00
2017-11-10T10:59:00.030Z,67.30
2017-11-10T11:01:26.367Z,66.90
2017-11-10T11:03:52.835Z,67.00
2017-11-10T11:06:19.202Z,66.30
2017-11-10T11:11:17.733Z,65.20
2017-11-10T11:13:44.078Z,65.10
2017-11-10T11:16:10.539Z,66.10
2017-11-10T11:18:36.892Z,65.90
2017-11-10T11:21:03.248Z,65.20
2017-11-10T11:23:29.605Z,65.90
2017-11-10T11:26:01.072Z,66.40
2017-11-10T11:28:27.397Z,66.40
2017-11-10T11:30:53.753Z,66.00
2017-11-10T11:33:20.130Z,66.00
2017-11-10T11:35:47.214Z,66.90
2017-11-10T11:38:13.583Z,66.80
2017-11-10T11:40:44.878Z,67.40
2017-11-10T11:43:11.276Z,67.90
2017-11-10T11:45:37.603Z,68.20
2017-11-10T11:48:03.941Z,68.50
2017-11-10T11:50:31.038Z,68.60
2017-11-10T11:52:57.384Z,68.50
2017-11-10T11:55:24.469Z,69.70
2017-11-10T11:57:50.852Z,69.70
2017-11-10T12:00:17.234Z,69.30
2017-11-10T12:02:48.503Z,69.50
2017-11-10T12:05:14.846Z,69.70
2017-11-10T12:07:41.214Z,70.00
2017-11-10T12:10:07.571Z,69.90
2017-11-10T12:12:33.951Z,70.50
2017-11-10T12:15:01.441Z,70.60
2017-11-10T12:17:28.549Z,69.80
2017-11-10T12:20:00.898Z,69.80
2017-11-10T12:22:27.980Z,70.40
2017-11-10T12:24:55.065Z,70.70
2017-11-10T12:27:21.226Z,70.70
2017-11-10T12:29:48.116Z,70.00
2017-11-10T12:32:14.256Z,69.90
2017-11-10T12:34:44.233Z,70.60
2017-11-10T12:37:10.578Z,70.80
2017-11-10T12:39:36.945Z,71.50
2017-11-10T12:42:03.316Z,71.00
2017-11-10T12:44:29.680Z,71.00
2017-11-10T12:46:56.022Z,70.40
2017-11-10T12:49:22.338Z,70.00
2017-11-10T12:51:48.770Z,70.30
2017-11-10T12:54:16.979Z,70.70
2017-11-10T12:56:43.345Z,70.20
2017-11-10T12:59:09.684Z,70.40
2017-11-10T13:01:36.037Z,70.30
2017-11-10T13:04:02.398Z,70.20
2017-11-10T13:06:29.450Z,69.50
2017-11-10T13:08:56.533Z,69.20
2017-11-10T13:11:26.957Z,69.20
2017-11-10T13:13:53.301Z,68.90
2017-11-10T13:16:19.663Z,68.60
2017-11-10T13:18:46.044Z,68.50
2017-11-10T13:21:12.359Z,69.30
2017-11-10T13:23:39.437Z,67.90
2017-11-10T13:26:11.870Z,68.00
2017-11-10T13:28:38.182Z,68.10
2017-11-10T13:31:04.532Z,67.10
2017-11-10T13:33:30.819Z,67.40
2017-11-10T13:35:57.192Z,67.60
2017-11-10T13:38:23.573Z,67.50
2017-11-10T13:40:49.907Z,67.40
2017-11-10T13:43:22.614Z,66.00
2017-11-10T13:45:49.478Z,66.00
2017-11-10T13:48:15.614Z,66.00
2017-11-10T13:50:41.982Z,66.10
2017-11-10T13:53:08.834Z,66.30
2017-11-10T13:55:35.674Z,66.00
2017-11-10T13:58:01.822Z,66.00
2017-11-10T14:00:28.902Z,65.90
2017-11-10T14:02:55.019Z,65.90
2017-11-10T14:05:21.142Z,65.80
2017-11-10T14:07:47.465Z,65.40
2017-11-10T14:10:13.794Z,65.30
2017-11-10T14:12:40.130Z,66.20
2017-11-10T14:15:06.515Z,65.90
2017-11-10T14:17:32.843Z,66.60
2017-11-10T14:19:59.169Z,66.50
2017-11-10T14:22:25.498Z,67.00
2017-11-10T14:24:51.841Z,66.30
2017-11-10T14:27:18.251Z,64.80
2017-11-10T14:29:44.586Z,64.80
2017-11-10T14:32:10.907Z,66.30
2017-11-10T14:34:37.263Z,66.20
2017-11-10T14:37:03.607Z,66.70
2017-11-10T14:39:29.917Z,66.70
2017-11-10T14:41:56.238Z,66.40
2017-11-10T14:44:22.608Z,66.20
2017-11-10T14:46:49.742Z,66.00
2017-11-10T14:49:16.067Z,66.00
2017-11-10T14:51:42.418Z,66.50
2017-11-10T14:54:08.766Z,65.70
2017-11-10T14:56:35.251Z,65.70
2017-11-10T14:59:13.047Z,65.30
2017-11-10T15:01:40.166Z,64.90
2017-11-10T15:04:10.858Z,65.00
2017-11-10T15:09:46.641Z,65.00
2017-11-10T15:12:12.758Z,64.90
2017-11-10T15:14:39.627Z,64.80
2017-11-10T15:17:05.814Z,64.70
2017-11-10T15:19:31.978Z,64.10
2017-11-10T15:21:58.106Z,65.40
2017-11-10T15:26:56.722Z,65.80
2017-11-10T15:29:23.669Z,65.80
2017-11-10T15:31:50.841Z,65.20
2017-11-10T15:34:16.973Z,65.10
2017-11-10T15:36:43.110Z,65.40
2017-11-10T15:39:09.996Z,65.60
2017-11-10T15:41:39.266Z,65.60
2017-11-10T15:44:05.420Z,65.00
2017-11-10T15:46:31.554Z,65.40
2017-11-10T15:48:57.700Z,66.00
2017-11-10T15:51:23.858Z,65.90
2017-11-10T15:53:49.994Z,65.20
2017-11-10T15:56:17.398Z,65.00
2017-11-10T15:58:49.196Z,65.00
2017-11-10T16:01:15.450Z,65.00
2017-11-10T16:03:41.594Z,65.00
2017-11-10T16:06:07.715Z,65.10
2017-11-10T16:08:33.873Z,63.70
2017-11-10T16:11:00.069Z,64.20
2017-11-10T16:13:32.312Z,63.70
2017-11-10T16:15:59.207Z,64.20
2017-11-10T16:18:25.383Z,64.30
2017-11-10T16:20:51.664Z,64.50
2017-11-10T16:23:17.872Z,64.40
2017-11-10T16:25:44.022Z,64.00
2017-11-10T16:28:15.716Z,64.70
2017-11-10T16:30:41.842Z,64.50
2017-11-10T16:33:08.944Z,64.60
2017-11-10T16:35:35.074Z,64.60
2017-11-10T16:38:01.942Z,64.50
2017-11-10T16:40:28.105Z,64.40
2017-11-10T16:42:59.757Z,64.60
2017-11-10T16:45:25.888Z,64.60
2017-11-10T16:47:52.021Z,64.50
2017-11-10T16:50:18.199Z,64.60
2017-11-10T16:52:44.351Z,64.70
2017-11-10T16:55:10.523Z,64.50
2017-11-10T16:57:36.740Z,64.50
2017-11-10T17:00:02.938Z,64.30
2017-11-10T17:02:31.122Z,64.40
2017-11-10T17:04:57.258Z,64.80
2017-11-10T17:07:23.372Z,64.40
2017-11-10T17:09:49.519Z,64.40
2017-11-10T17:12:16.725Z,64.10
2017-11-10T17:14:42.870Z,63.70
2017-11-10T17:17:09.761Z,62.80
2017-11-10T17:19:41.274Z,62.70
2017-11-10T17:22:07.410Z,63.60
2017-11-10T17:24:33.609Z,62.90
2017-11-10T17:26:59.785Z,62.90
2017-11-10T17:29:26.012Z,62.90
2017-11-10T17:31:52.200Z,63.40
2017-11-10T17:34:18.384Z,63.00
2017-11-10T17:36:46.802Z,64.30
2017-11-10T17:39:19.293Z,64.30
2017-11-10T17:41:46.178Z,63.70
2017-11-10T17:44:12.393Z,63.60
2017-11-10T17:46:38.545Z,63.50
2017-11-10T17:49:05.158Z,63.20
2017-11-10T17:51:31.281Z,62.70
2017-11-10T17:54:00.838Z,63.30
2017-11-10T17:56:26.961Z,63.70
2017-11-10T17:58:53.219Z,63.80
2017-11-10T18:01:20.077Z,63.60
2017-11-10T18:03:46.973Z,63.60
2017-11-10T18:06:13.192Z,63.60
2017-11-10T18:08:39.338Z,63.50
2017-11-10T18:11:08.769Z,63.20
2017-11-10T18:13:34.907Z,62.50
2017-11-10T18:16:01.026Z,63.60
2017-11-10T18:18:28.184Z,63.50
2017-11-10T18:20:58.115Z,63.00
2017-11-10T18:23:24.281Z,63.70
2017-11-10T18:25:50.415Z,63.30
2017-11-10T18:30:49.948Z,62.40
2017-11-10T18:33:16.090Z,62.40
2017-11-10T18:35:43.041Z,62.20
2017-11-10T18:38:09.951Z,62.00
2017-11-10T18:40:36.110Z,62.00
2017-11-10T18:43:02.284Z,62.30
2017-11-10T18:45:28.427Z,61.90
2017-11-10T18:47:54.559Z,61.80
2017-11-10T18:50:20.679Z,62.00
2017-11-10T18:52:50.136Z,62.10
2017-11-10T18:55:16.258Z,61.70
2017-11-10T18:57:42.398Z,61.50
2017-11-10T19:00:08.497Z,61.20
2017-11-10T19:02:34.645Z,61.30
2017-11-10T19:05:01.595Z,61.80
2017-11-10T19:07:27.695Z,61.80
2017-11-10T19:09:57.716Z,60.80
2017-11-10T19:12:23.850Z,60.80
2017-11-10T19:14:50.058Z,60.60
2017-11-10T19:17:16.217Z,60.40
2017-11-10T19:19:43.062Z,60.30
2017-11-10T19:22:09.146Z,60.30
2017-11-10T19:24:36.007Z,60.10
2017-11-10T19:27:07.286Z,60.00
2017-11-10T19:29:33.430Z,60.10
2017-11-10T19:31:59.616Z,61.10
2017-11-10T19:34:25.923Z,60.40
2017-11-10T19:36:52.035Z,60.10
2017-11-10T19:39:18.153Z,60.20
2017-11-10T19:41:44.274Z,59.80
2017-11-10T19:44:11.158Z,59.50
2017-11-10T19:46:38.869Z,59.50
2017-11-10T19:49:05.095Z,59.30
2017-11-10T19:51:32.015Z,59.90
2017-11-10T19:53:58.199Z,59.80
2017-11-10T19:56:24.326Z,59.60
2017-11-10T19:58:50.461Z,60.00
2017-11-10T20:01:16.596Z,60.70
2017-11-10T20:03:50.335Z,60.00
2017-11-10T20:06:17.199Z,60.00
2017-11-10T20:08:44.128Z,60.60
2017-11-10T20:11:10.281Z,60.50
2017-11-10T20:13:36.434Z,59.90
2017-11-10T20:16:02.559Z,59.90
2017-11-10T20:18:28.693Z,59.30
2017-11-10T20:20:58.053Z,59.10
2017-11-10T20:23:24.188Z,59.50
2017-11-10T20:25:51.071Z,60.50
2017-11-10T20:28:17.935Z,59.50
2017-11-10T20:30:44.814Z,60.60
2017-11-10T20:33:13.366Z,60.20
2017-11-10T20:35:40.514Z,59.50
2017-11-10T20:38:08.303Z,60.50
2017-11-10T20:40:35.427Z,59.50
2017-11-10T20:43:01.583Z,59.40
2017-11-10T20:45:27.740Z,59.30
2017-11-10T20:47:53.898Z,59.80
2017-11-10T20:50:20.766Z,59.40
2017-11-10T20:52:46.918Z,59.40
2017-11-10T20:55:13.021Z,59.20
2017-11-10T20:57:39.872Z,59.20
2017-11-10T21:00:06.730Z,59.10
2017-11-10T21:02:33.580Z,59.10
2017-11-10T21:04:59.690Z,59.10
2017-11-10T21:07:26.106Z,59.70
2017-11-10T21:09:52.226Z,59.40
2017-11-10T21:12:18.346Z,60.20
2017-11-10T21:14:44.453Z,60.20
2017-11-10T21:17:10.666Z,60.10
2017-11-10T21:19:36.846Z,59.50
2017-11-10T21:22:02.966Z,60.20
2017-11-10T21:24:29.079Z,60.70
2017-11-10T21:26:55.201Z,60.00
2017-11-10T21:29:21.390Z,60.20
2017-11-10T21:31:47.490Z,59.30
2017-11-10T21:34:13.714Z,59.90
2017-11-10T21:36:40.702Z,59.50
2017-11-10T21:39:06.825Z,59.40
2017-11-10T21:41:32.973Z,59.60
2017-11-10T21:43:59.114Z,59.30
2017-11-10T21:46:25.232Z,59.30
2017-11-10T21:48:51.349Z,59.80
2017-11-10T21:51:18.203Z,60.80
2017-11-10T21:53:45.044Z,60.50
2017-11-10T21:56:11.189Z,60.30
2017-11-10T21:58:38.109Z,60.30
2017-11-10T22:01:04.199Z,60.30
2017-11-10T22:03:30.306Z,59.40
2017-11-10T22:05:57.157Z,60.60
2017-11-10T22:08:23.347Z,60.50
2017-11-10T22:10:49.436Z,60.00
2017-11-10T22:13:15.539Z,60.10
2017-11-10T22:15:41.678Z,59.80
2017-11-10T22:18:07.794Z,60.00
2017-11-10T22:20:33.899Z,59.90
2017-11-10T22:23:00.753Z,60.20
2017-11-10T22:25:27.614Z,59.80
2017-11-10T22:27:55.106Z,60.50
2017-11-10T22:30:21.209Z,60.50
2017-11-10T22:32:47.329Z,60.10
2017-11-10T22:35:13.489Z,60.00
2017-11-10T22:37:39.801Z,59.90
2017-11-10T22:40:05.976Z,60.70
2017-11-10T22:42:32.812Z,59.70
2017-11-10T22:44:58.904Z,60.20
2017-11-10T22:47:25.933Z,59.70
2017-11-10T22:49:52.040Z,59.70
2017-11-10T22:52:18.167Z,60.00
2017-11-10T22:54:44.266Z,59.90
2017-11-10T22:57:10.549Z,59.80
2017-11-10T22:59:36.691Z,61.00
2017-11-10T23:02:02.835Z,60.40
2017-11-10T23:04:28.994Z,59.40
2017-11-10T23:06:55.854Z,60.20
2017-11-10T23:09:21.968Z,60.20
2017-11-10T23:11:48.081Z,59.50
2017-11-10T23:14:14.239Z,60.00
2017-11-10T23:16:40.340Z,60.30
2017-11-10T23:19:06.433Z,60.40
2017-11-10T23:21:33.369Z,60.30
2017-11-10T23:23:59.510Z,60.30
2017-11-10T23:26:25.630Z,60.50
2017-11-10T23:28:51.753Z,60.30
2017-11-10T23:31:18.008Z,60.30
2017-11-10T23:33:44.128Z,60.20
2017-11-10T23:36:10.258Z,60.80
2017-11-10T23:38:36.365Z,60.80
2017-11-10T23:41:03.234Z,61.40
2017-11-10T23:43:29.344Z,61.30
2017-11-10T23:45:55.453Z,61.10
2017-11-10T23:48:21.554Z,60.90
2017-11-10T23:50:47.675Z,61.50
2017-11-10T23:53:14.511Z,61.60
2017-11-10T23:55:40.616Z,61.60
2017-11-10T23:58:06.726Z,61.70
